Aviation Digital Data Service (ADDS)

Output produced by METARs form (1825 UTC 16 August 2018)
found at http://www.aviationweather.gov/adds/metars/
 
TAF KBAB 161103Z 1611/1717 18006KT 9999 SKC QNH2990INS 
     BECMG 1620/1621 20009KT 9999 SKC QNH2992INS 
     BECMG 1702/1703 18006KT 9999 SKC QNH2993INS TX35/1623Z TN15/1612Z
       
TAF KBAD 161800Z 1618/1724 20006KT 9999 FEW055 FEW250 QNH2992INS 
     BECMG 1623/1624 20006KT 9999 SCT055 SCT250 QNH2993INS 
     BECMG 1721/1722 22009KT 9000 -SHRA VCTS BKN030CB QNH2993INS TX36/1622Z TN25/1712Z
       
KBAF 161729Z 1618/1718 30009KT P6SM SCT045 
     FM170100 01003KT P6SM FEW250 
     FM171600 18006KT P6SM BKN035
       
KBAM 161720Z 1618/1718 VRB06KT P6SM SCT120 
     FM170000 33008KT P6SM VCTS BKN120CB 
     FM170400 VRB05KT P6SM SCT120
       
KBBD 161720Z 1618/1718 18008KT P6SM SKC
       
KBBG 161720Z 1618/1718 VRB03KT P6SM SCT030 BKN150 
     FM170300 VRB04KT P6SM VCTS SCT040CB 
     FM170600 VRB04KT 6SM -SHRA VCTS BKN040CB 
     TEMPO 1706/1710 3SM -TSRA BR OVC035CB 
     FM171300 VRB04KT P6SM BKN250
       
KBCB 161735Z 1618/1718 VRB04KT P6SM SCT060 SCT250 
     FM170700 VRB02KT 2SM BR SCT003 
     TEMPO 1709/1712 1/2SM FG BKN003 
     FM171400 24010KT P6SM VCTS BKN040CB
       
KBCE 161726Z 1618/1718 31007KT P6SM BKN110 
     FM161900 28008KT P6SM VCTS SCT070CB BKN110 
     FM170200 29006KT P6SM SCT120
       
KBDL 161729Z 1618/1724 29010KT P6SM BKN045 
     FM170100 30006KT P6SM FEW250 
     FM171600 19006KT P6SM BKN045
       
KBDR 161722Z 1618/1718 23012KT P6SM FEW050 SCT200 
     FM170000 23006KT P6SM FEW050 SCT200 
     FM170400 VRB03KT P6SM FEW050 SCT200 
     FM171300 24004KT P6SM FEW050 SCT150 
     FM171500 21011KT P6SM FEW050 SCT150 SCT250
       
KBED 161729Z 1618/1718 29008KT P6SM SCT045 
     FM162200 33006KT P6SM SCT050 
     FM170100 02005KT P6SM FEW060 
     FM171500 12004KT P6SM BKN050
       
KBFD 161804Z 1618/1718 20005KT P6SM VCSH SCT050 BKN100 BKN250 
     FM162100 23007KT P6SM VCTS SCT025 BKN050CB 
     FM170100 17005KT 4SM -SHRA OVC050 
     FM170900 19007KT 6SM -SHRA BR OVC025
       
KBFF 161720Z 1618/1718 31005KT P6SM SKC 
     FM162100 07007KT P6SM SKC
       
KBFI 161724Z 1618/1718 21005KT 4SM BR OVC007 
     FM161900 23005KT P6SM BKN015 
     FM162100 23005KT P6SM SKC 
     FM170200 29004KT P6SM SKC 
     FM170800 19003KT P6SM SCT018 
     FM171200 18003KT 4SM BR OVC007
       
KBFL 161727Z 1618/1718 00000KT P6SM SKC 
     FM162000 31010KT P6SM SKC 
     FM170300 35005KT P6SM SKC
       
KBFM 161721Z 1618/1718 14006KT P6SM FEW025 SCT050 
     FM170100 17004KT P6SM BKN250
       
KBGM 161720Z 1618/1718 27005KT P6SM SCT035 
     FM162300 20004KT P6SM BKN035 
     TEMPO 1705/1709 5SM SHRA BR OVC025 
     FM170900 17005KT 5SM BR OVC015 
     FM171300 21008KT P6SM -SHRA OVC035
       
KBGR 161724Z 1618/1718 34009G16KT P6SM BKN045 
     FM162100 33008KT P6SM SCT050 
     FM170100 32004KT P6SM FEW070 
     FM170500 VRB03KT P6SM SKC 
     FM170900 VRB02KT 3SM BR FEW250 
     FM171100 VRB02KT P6SM SCT250 
     FM171500 19003KT P6SM SCT120 BKN220
       
KBHB 161724Z 1618/1718 34009G16KT P6SM BKN045 
     FM162100 33008KT P6SM SCT050 
     FM170100 32004KT P6SM FEW070 
     FM170500 VRB03KT P6SM SKC 
     FM171100 VRB02KT P6SM SCT250 
     FM171500 19003KT P6SM SCT120 BKN220
       
KBHM 161732Z 1618/1718 19008KT P6SM SCT050 BKN250 
     FM170600 20005KT P6SM BKN250
       
TAF KBIF 161404Z 1614/1720 20009KT 9999 BKN140 QNH3011INS 
     BECMG 1615/1616 24009KT 9999 SCT100 QNH3008INS 
     BECMG 1620/1621 24015G25KT 9999 VCTS SCT100CB QNH3006INS 
     TEMPO 1623/1704 VRB25G35KT 6000 TSRA 
     BECMG 1703/1704 VRB06KT 9999 NSW SCT100 QNH3011INS 
     BECMG 1714/1715 24009KT 9999 FEW100 QNH3014INS TX34/1623Z TN22/1712Z
       
KBIH 161737Z 1618/1718 VRB05KT P6SM SCT150 
     FM161900 17010KT P6SM SCT100 
     FM162100 17015G25KT P6SM VCTS SCT100CB 
     TEMPO 1622/1701 VRB20G30KT P6SM -TSRA 
     FM170200 19008KT P6SM SCT100 
     FM170500 34008KT P6SM FEW150
       
KBIL 161720Z 1618/1718 22014KT P6SM SKC 
     FM162100 15005KT P6SM SCT150 
     FM170600 23010KT 5SM FU SCT150 
     FM171500 22010KT P6SM SCT150
       
KBIS 161731Z 1618/1718 VRB04KT P6SM SKC
       
TAF KBIX 161800Z 1618/1724 16009KT 9999 VCTS SCT035CB SCT200 QNH3002INS 
     TEMPO 1619/1624 19009KT 8000 -TSRA BKN020CB 
     BECMG 1623/1624 18006KT 9999 NSW BKN030 QNH3007INS 
     BECMG 1712/1713 VRB06KT 9999 SCT030 QNH3004INS 
     TEMPO 1713/1721 19009KT 8000 -TSRA BKN020CB 
     BECMG 1723/1724 18006KT 9999 BKN030 QNH3007INS TX33/1619Z TN24/1711Z
       
KBJC 161730Z 1618/1718 VRB03KT P6SM SCT250 
     FM162100 07005KT P6SM SCT120 BKN200 
     FM170300 21005KT P6SM SCT200
       
KBJI 161736Z 1618/1718 VRB03KT P6SM SKC
       
KBKE 161736Z 1618/1718 VRB06KT P6SM FEW080 BKN150 
     FM162100 30007KT P6SM VCTS SCT080CB 
     TEMPO 1622/1702 VRB15G25KT 
     FM170300 VRB06KT P6SM VCSH BKN080
       
TAF KBKF 161701Z 1617/1723 01009KT 9999 FEW120 SCT220 QNH3020INS 
     BECMG 1620/1621 07009KT 9999 FEW100 SCT200 QNH3021INS 
     TEMPO 1621/1624 10010G15KT VCSH 
     BECMG 1704/1705 16009KT 9999 FEW130 QNH3025INS 
     TEMPO 1705/1707 15012G18KT 
     BECMG 1718/1719 22009KT 9999 FEW200 QNH3019INS TX31/1623Z TN15/1712Z
       
KBKW 161739Z 1618/1718 21007KT P6SM VCSH BKN040 
     FM162200 21006KT P6SM SCT050 
     FM170000 18006KT P6SM BKN200 
     FM171000 22009KT P6SM BKN100
       
KBLF 161735Z 1618/1718 28007KT P6SM SCT040 SCT140 
     FM171400 24010KT P6SM VCTS BKN040CB
       
KBLH 161736Z 1618/1718 18009KT P6SM FEW150 
     FM170000 18018G28KT P6SM VCTS BKN080CB BKN150 
     FM170200 18006KT P6SM SCT100 SCT150
       
KBLI 161724Z 1618/1718 18008KT P6SM SKC 
     FM171500 17008G15KT P6SM SKC
       
TAF KBLV 161600Z 1616/1722 VRB06KT 9999 BKN015 QNH2993INS 
     BECMG 1617/1618 26009KT 9999 SCT025 QNH2990INS 
     TEMPO 1620/1623 27015G25KT 8000 -TSRA BKN030CB 
     BECMG 1711/1712 24009KT 9000 -SHRA SCT025 BKN030 QNH2994INS 
     TEMPO 1720/1722 34015G25KT 8000 -TSRA OVC030CB TX31/1621Z TN22/1711Z
       
KBMG 161730Z 1618/1718 21008KT P6SM VCTS OVC020CB 
     FM170500 VRB04KT P6SM VCSH BKN200 
     FM171100 VRB04KT P6SM VCSH BKN015 
     FM171200 VRB04KT 2SM -SHRA BKN008 
     FM171500 VRB04KT 6SM -SHRA BKN035
       
KBMI 161738Z 1618/1718 12005KT P6SM VCSH BKN015 
     FM161900 12005KT P6SM SCT015 BKN035 
     FM170200 VRB03KT P6SM VCTS SCT035CB BKN250 
     FM170900 VRB03KT P6SM VCTS BKN025CB 
     FM171100 VRB03KT P6SM BKN015 
     FM171700 30005KT P6SM BKN025
       
KBNA 161726Z 1618/1718 20012KT P6SM SCT050 BKN120 
     TEMPO 1618/1622 3SM -TSRA OVC035CB 
     FM170300 19007KT P6SM VCSH BKN070 BKN150
       
KBNO 161736Z 1618/1718 VRB06KT P6SM BKN150 
     FM162100 18008KT P6SM VCTS BKN120CB 
     TEMPO 1622/1702 VRB15G25KT 
     FM170200 VRB06KT P6SM BKN100
       
KBOI 161736Z 1618/1718 31007KT P6SM SCT150 
     FM170100 VRB06KT P6SM VCSH BKN120 
     TEMPO 1701/1703 VRB15G25KT 
     FM170400 14006KT P6SM SCT120
       
KBOS 161729Z 1618/1724 28012KT P6SM VCTS SCT050CB 
     FM162100 33010KT P6SM SCT060 
     FM170100 01007KT P6SM FEW045 
     FM171400 11008KT P6SM BKN050 
     FM172300 18007KT P6SM BKN050
       
KBPI 161720Z 1618/1718 00000KT P6SM SKC 
     FM162300 01006KT P6SM FEW110 SCT200 
     FM171100 VRB04KT P6SM FEW200
       
KBPK 161730Z 1618/1718 27005KT P6SM SCT030 BKN100 
     TEMPO 1618/1620 BKN030 
     FM170100 24006KT P6SM SCT035 BKN100 
     TEMPO 1704/1708 3SM -TSRA BR BKN035CB 
     FM171200 17002KT P6SM BKN250 
     TEMPO 1713/1716 4SM -TSRA BR BKN050CB
       
KBPT 161720Z 1618/1718 22008KT P6SM VCTS SCT035CB BKN200 
     FM170100 VRB04KT P6SM SCT250
       
KBRD 161740Z 1618/1718 VRB04KT P6SM SKC 
     FM171000 00000KT 4SM BR SKC 
     FM171300 33006KT P6SM FEW130
       
KBRL 161730Z 1618/1718 VRB03KT P6SM VCSH FEW020 BKN040 
     TEMPO 1618/1620 BKN025 
     FM162200 27005KT P6SM VCTS BKN050CB 
     FM170300 03005KT 5SM BR BKN050 
     FM170800 VRB04KT 4SM BR VCSH SCT030 BKN100 
     FM171100 VRB03KT 2SM BR SCT025 BKN030 
     FM171400 35006KT P6SM SCT015 BKN025
       
KBRO 161723Z 1618/1718 15016G24KT P6SM FEW035 
     FM170230 14008KT P6SM SCT250 
     FM171500 15012G18KT P6SM SCT035
       
KBTL 161740Z 1618/1718 12006KT P6SM VCSH SCT025 BKN040 
     TEMPO 1618/1622 BKN025 
     FM170700 00000KT 5SM BR BKN015 
     FM171000 00000KT 2SM BR BKN007 
     FM171400 00000KT 5SM BR BKN015 
     FM171700 VRB03KT P6SM VCSH BKN025
       
KBTM 161720Z 1618/1718 VRB03KT P6SM SKC 
     FM162000 35006KT P6SM BKN150 
     FM170300 VRB04KT P6SM BKN150
       
KBTR 161738Z 1618/1718 25004KT P6SM VCTS BKN020CB 
     TEMPO 1619/1623 VRB20G30KT 3SM TSRA BKN030CB 
     FM170100 VRB03KT P6SM FEW025 SCT110 
     FM171500 24005KT P6SM BKN050
       
KBTV 161720Z 1618/1718 34006KT P6SM FEW200 
     FM162300 02006KT P6SM SKC 
     FM170400 VRB03KT P6SM BKN150 
     FM171200 15005KT P6SM VCSH OVC050 
     FM171400 17007KT 6SM -SHRA BR OVC035
       
KBUF 161735Z 1618/1718 24012KT P6SM BKN080 
     FM170000 18005KT P6SM VCSH OVC050 
     FM170400 18007KT 6SM -SHRA VCTS OVC040CB 
     FM170900 20010KT P6SM OVC035 
     FM171500 23014G22KT P6SM BKN025
       
KBUR 161727Z 1618/1718 15005KT P6SM SKC 
     FM162000 18008KT P6SM SKC 
     FM170500 VRB03KT P6SM SKC 
     FM171200 VRB03KT 5SM HZ SKC 
     FM171600 14005KT P6SM SKC
       
KBVI 161746Z 1618/1718 21008KT 6SM -SHRA VCTS BKN060CB 
     TEMPO 1618/1619 4SM -TSRA BKN040CB 
     FM170300 18005KT 5SM -SHRA BR SCT015 OVC080 
     FM171000 21008KT 5SM -SHRA BR OVC015 
     FM171200 20007KT P6SM -SHRA OVC010
       
KBVO 161720Z 1618/1718 11006KT P6SM SCT050 SCT150 
     FM162300 VRB04KT P6SM VCTS BKN050CB 
     TEMPO 1623/1701 4SM TSRA BKN035CB 
     FM170300 VRB03KT P6SM BKN100 
     PROB30 1703/1709 4SM TSRA BKN035CB 
     FM171200 02003KT P6SM SCT100 BKN250
       
KBWG 161737Z 1618/1718 17008KT P6SM BKN070 
     FM170300 22004KT 6SM BR BKN030 BKN250 
     FM170700 20003KT 5SM BR BKN010 
     FM171200 19007KT P6SM VCSH BKN015
       
KBWI 161738Z 1618/1724 18006KT P6SM SCT050 BKN250 
     FM170000 18004KT P6SM FEW070 BKN250 
     FM171600 21007KT P6SM SCT090 BKN250
       
KBYI 161726Z 1618/1718 VRB05KT P6SM VCSH BKN150 
     TEMPO 1623/1701 VRB10G35KT P6SM -TSRA BKN100CB OVC160 
     FM170200 19008KT P6SM FEW100 SCT180
       
KBZN 161730Z 1618/1724 VRB03KT P6SM SKC 
     FM162000 VRB03KT P6SM SCT100 BKN150 
     TEMPO 1700/1702 VRB15G20KT TS BKN100CB 
     FM170400 VRB02KT P6SM SCT200